Time,TemperatureF,DewpointF,PressureIn,WindDirection,WindDirectionDegrees,WindSpeedMPH,WindSpeedGustMPH,Humidity,HourlyPrecipIn,Conditions,Clouds,dailyrainin,SoftwareType,DateUTC
2013-07-21 00:02:00,58.3,39.2,29.85,North,0,0.0,0.0,49,0.00,,OVC036,0.00,VWS V12.08,2013-07-21 07:02:00,
2013-07-21 00:07:00,58.1,39.1,29.85,North,0,0.0,0.0,49,0.00,,OVC036,0.00,VWS V12.08,2013-07-21 07:07:00,
2013-07-21 00:12:00,57.9,38.9,29.85,North,0,0.0,0.0,49,0.00,,OVC036,0.00,VWS V12.08,2013-07-21 07:12:00,
2013-07-21 00:17:00,57.7,38.7,29.85,North,0,0.0,0.0,49,0.00,,OVC036,0.00,VWS V12.08,2013-07-21 07:17:00,
2013-07-21 00:22:00,57.6,38.6,29.85,North,0,0.0,0.0,49,0.00,,OVC036,0.00,VWS V12.08,2013-07-21 07:22:00,
2013-07-21 00:27:00,57.6,38.6,29.85,North,0,0.0,0.0,49,0.00,,OVC036,0.00,VWS V12.08,2013-07-21 07:27:00,
2013-07-21 00:32:00,57.4,38.9,29.85,North,0,0.0,0.0,50,0.00,,OVC036,0.00,VWS V12.08,2013-07-21 07:32:00,
2013-07-21 00:37:00,57.2,38.8,29.85,North,0,0.0,0.0,50,0.00,,OVC036,0.00,VWS V12.08,2013-07-21 07:37:00,
2013-07-21 00:42:00,57.0,39.1,29.85,North,0,0.0,0.0,51,0.00,,OVC036,0.00,VWS V12.08,2013-07-21 07:42:00,
2013-07-21 00:47:00,56.8,38.9,29.85,North,0,0.0,0.0,51,0.00,,OVC036,0.00,VWS V12.08,2013-07-21 07:47:00,
2013-07-21 00:52:00,56.8,39.4,29.85,North,0,0.0,0.0,52,0.00,,OVC036,0.00,VWS V12.08,2013-07-21 07:52:00,
2013-07-21 00:57:00,56.7,39.2,29.85,North,0,0.0,0.0,52,0.00,,OVC036,0.00,VWS V12.08,2013-07-21 07:57:00,
2013-07-21 01:02:00,56.7,39.7,29.85,North,0,0.0,0.0,53,0.00,,OVC036,0.00,VWS V12.08,2013-07-21 08:02:00,
2013-07-21 01:07:00,56.5,39.6,29.85,North,0,0.0,0.0,53,0.00,,OVC036,0.00,VWS V12.08,2013-07-21 08:07:00,
2013-07-21 01:12:00,56.3,39.4,29.85,North,0,0.0,0.0,53,0.00,,OVC036,0.00,VWS V12.08,2013-07-21 08:12:00,
2013-07-21 01:17:00,56.1,39.2,29.85,North,0,0.0,0.0,53,0.00,,OVC036,0.00,VWS V12.08,2013-07-21 08:17:00,
2013-07-21 01:22:00,55.9,39.1,29.85,North,0,0.0,0.0,53,0.00,,OVC036,0.00,VWS V12.08,2013-07-21 08:22:00,
2013-07-21 01:27:00,55.9,39.1,29.85,North,0,0.0,0.0,53,0.00,,OVC036,0.00,VWS V12.08,2013-07-21 08:27:00,
2013-07-21 01:32:00,55.6,38.7,29.85,North,0,0.0,0.0,53,0.00,,OVC036,0.00,VWS V12.08,2013-07-21 08:32:00,
2013-07-21 01:37:00,55.6,38.7,29.85,North,0,0.0,0.0,53,0.00,,OVC036,0.00,VWS V12.08,2013-07-21 08:37:00,
2013-07-21 01:42:00,55.4,38.6,29.85,North,0,0.0,0.0,53,0.00,,OVC036,0.00,VWS V12.08,2013-07-21 08:42:00,
2013-07-21 01:47:00,55.4,39.0,29.85,North,0,0.0,0.0,54,0.00,,OVC036,0.00,VWS V12.08,2013-07-21 08:47:00,
2013-07-21 01:52:00,55.0,38.7,29.85,North,0,0.0,0.0,54,0.00,,OVC036,0.00,VWS V12.08,2013-07-21 08:52:00,
2013-07-21 01:57:00,54.9,38.5,29.85,North,0,0.0,0.0,54,0.00,,OVC036,0.00,VWS V12.08,2013-07-21 08:57:00,
2013-07-21 02:02:00,54.9,39.0,29.85,North,0,0.0,0.0,55,0.00,,OVC036,0.00,VWS V12.08,2013-07-21 09:02:00,
2013-07-21 02:07:00,54.7,38.8,29.85,North,0,0.0,0.0,55,0.00,,OVC036,0.00,VWS V12.08,2013-07-21 09:07:00,
2013-07-21 02:12:00,54.7,38.8,29.85,North,0,0.0,0.0,55,0.00,,OVC036,0.00,VWS V12.08,2013-07-21 09:12:00,
2013-07-21 02:17:00,54.5,38.7,29.85,North,0,0.0,0.0,55,0.00,,OVC036,0.00,VWS V12.08,2013-07-21 09:17:00,
2013-07-21 02:22:00,54.5,38.7,29.85,North,0,0.0,0.0,55,0.00,,OVC036,0.00,VWS V12.08,2013-07-21 09:22:00,
2013-07-21 02:27:00,54.3,39.0,29.85,North,0,0.0,0.0,56,0.00,,OVC036,0.00,VWS V12.08,2013-07-21 09:27:00,
2013-07-21 02:32:00,54.3,39.0,29.85,North,0,0.0,0.0,56,0.00,,OVC036,0.00,VWS V12.08,2013-07-21 09:32:00,
2013-07-21 02:37:00,54.3,39.4,29.85,North,0,0.0,0.0,57,0.00,,OVC036,0.00,VWS V12.08,2013-07-21 09:37:00,
2013-07-21 02:42:00,54.3,39.4,29.85,North,0,0.0,0.0,57,0.00,,OVC036,0.00,VWS V12.08,2013-07-21 09:42:00,
2013-07-21 02:47:00,54.3,39.4,29.85,North,0,0.0,0.0,57,0.00,,OVC036,0.00,VWS V12.08,2013-07-21 09:47:00,
2013-07-21 02:52:00,54.1,39.3,29.85,North,0,0.0,0.0,57,0.00,,OVC036,0.00,VWS V12.08,2013-07-21 09:52:00,
2013-07-21 02:57:00,54.0,39.5,29.85,North,0,0.0,0.0,58,0.00,,OVC036,0.00,VWS V12.08,2013-07-21 09:57:00,
2013-07-21 03:02:00,54.0,39.5,29.85,North,0,0.0,0.0,58,0.00,,OVC036,0.00,VWS V12.08,2013-07-21 10:02:00,
2013-07-21 03:07:00,53.6,39.2,29.85,North,0,0.0,0.0,58,0.00,,OVC036,0.00,VWS V12.08,2013-07-21 10:07:00,
2013-07-21 03:12:00,53.4,39.0,29.85,North,0,0.0,0.0,58,0.00,,OVC036,0.00,VWS V12.08,2013-07-21 10:12:00,
2013-07-21 03:17:00,53.4,39.5,29.85,North,0,0.0,0.0,59,0.00,,OVC036,0.00,VWS V12.08,2013-07-21 10:17:00,
2013-07-21 03:22:00,53.2,38.9,29.85,North,0,0.0,0.0,58,0.00,,OVC036,0.00,VWS V12.08,2013-07-21 10:22:00,
2013-07-21 03:27:00,53.1,39.1,29.85,North,0,0.0,0.0,59,0.00,,OVC036,0.00,VWS V12.08,2013-07-21 10:27:00,
2013-07-21 03:32:00,52.9,39.0,29.85,North,0,0.0,0.0,59,0.00,,OVC036,0.00,VWS V12.08,2013-07-21 10:32:00,
2013-07-21 03:37:00,53.1,39.6,29.85,North,0,0.0,0.0,60,0.00,,OVC036,0.00,VWS V12.08,2013-07-21 10:37:00,
2013-07-21 03:42:00,53.1,40.0,29.85,North,0,0.0,0.0,61,0.00,,OVC036,0.00,VWS V12.08,2013-07-21 10:42:00,
2013-07-21 03:47:00,53.1,40.0,29.85,North,0,0.0,0.0,61,0.00,,OVC036,0.00,VWS V12.08,2013-07-21 10:47:00,
2013-07-21 03:52:00,53.2,40.2,29.85,North,0,0.0,0.0,61,0.00,,OVC036,0.00,VWS V12.08,2013-07-21 10:52:00,
2013-07-21 03:57:00,53.4,40.7,29.85,North,0,0.0,0.0,62,0.00,,OVC036,0.00,VWS V12.08,2013-07-21 10:57:00,
2013-07-21 04:02:00,53.6,40.9,29.85,North,0,0.0,0.0,62,0.00,,OVC036,0.00,VWS V12.08,2013-07-21 11:02:00,
2013-07-21 04:07:00,53.8,41.5,29.85,North,0,0.0,0.0,63,0.00,,OVC036,0.00,VWS V12.08,2013-07-21 11:07:00,
2013-07-21 04:12:00,54.0,41.7,29.85,North,0,0.0,0.0,63,0.00,,OVC036,0.00,VWS V12.08,2013-07-21 11:12:00,
2013-07-21 04:17:00,54.1,42.2,29.85,North,0,0.0,0.0,64,0.00,,OVC036,0.00,VWS V12.08,2013-07-21 11:17:00,
2013-07-21 04:22:00,54.3,42.4,29.85,North,0,0.0,0.0,64,0.00,,OVC036,0.00,VWS V12.08,2013-07-21 11:22:00,
2013-07-21 04:27:00,54.3,42.8,29.85,North,0,0.0,0.0,65,0.00,,OVC036,0.00,VWS V12.08,2013-07-21 11:27:00,
2013-07-21 04:32:00,54.5,43.0,29.85,North,0,0.0,0.0,65,0.00,,OVC036,0.00,VWS V12.08,2013-07-21 11:32:00,
2013-07-21 04:37:00,54.5,43.0,29.85,North,0,0.0,0.0,65,0.00,,OVC036,0.00,VWS V12.08,2013-07-21 11:37:00,
2013-07-21 04:42:00,54.7,43.2,29.85,North,0,0.0,0.0,65,0.00,,OVC036,0.00,VWS V12.08,2013-07-21 11:42:00,
2013-07-21 04:47:00,54.9,43.3,29.85,North,0,0.0,0.0,65,0.00,,OVC036,0.00,VWS V12.08,2013-07-21 11:47:00,
2013-07-21 04:52:00,54.9,43.7,29.85,North,0,0.0,0.0,66,0.00,,OVC036,0.00,VWS V12.08,2013-07-21 11:52:00,
2013-07-21 04:57:00,54.9,43.7,29.85,North,0,0.0,0.0,66,0.00,,OVC036,0.00,VWS V12.08,2013-07-21 11:57:00,
2013-07-21 05:02:00,55.0,44.3,29.85,North,0,0.0,0.0,67,0.00,,OVC036,0.00,VWS V12.08,2013-07-21 12:02:00,
2013-07-21 05:07:00,55.2,44.5,29.85,North,0,0.0,0.0,67,0.00,,OVC036,0.00,VWS V12.08,2013-07-21 12:07:00,
2013-07-21 05:12:00,55.2,44.5,29.85,North,0,0.0,0.0,67,0.00,,OVC036,0.00,VWS V12.08,2013-07-21 12:12:00,
2013-07-21 05:17:00,55.2,44.5,29.85,North,0,0.0,0.0,67,0.00,,OVC036,0.00,VWS V12.08,2013-07-21 12:17:00,
2013-07-21 05:22:00,55.4,44.6,29.85,North,0,0.0,0.0,67,0.00,,OVC036,0.00,VWS V12.08,2013-07-21 12:22:00,
2013-07-21 05:27:00,55.6,44.8,29.85,North,0,0.0,0.0,67,0.00,,OVC036,0.00,VWS V12.08,2013-07-21 12:27:00,
2013-07-21 05:32:00,55.4,44.2,29.85,North,0,0.0,0.0,66,0.00,,OVC036,0.00,VWS V12.08,2013-07-21 12:32:00,
2013-07-21 05:37:00,55.6,44.4,29.85,North,0,0.0,0.0,66,0.00,,OVC036,0.00,VWS V12.08,2013-07-21 12:37:00,
2013-07-21 05:42:00,55.8,44.6,29.85,North,0,0.0,0.0,66,0.00,,OVC036,0.00,VWS V12.08,2013-07-21 12:42:00,
2013-07-21 05:47:00,55.8,44.6,29.85,North,0,0.0,0.0,66,0.00,,OVC036,0.00,VWS V12.08,2013-07-21 12:47:00,
2013-07-21 05:52:00,55.9,44.8,29.85,North,0,0.0,0.0,66,0.00,,OVC036,0.00,VWS V12.08,2013-07-21 12:52:00,
2013-07-21 05:57:00,55.9,44.8,29.85,North,0,0.0,0.0,66,0.00,,OVC036,0.00,VWS V12.08,2013-07-21 12:57:00,
2013-07-21 06:02:00,55.9,44.8,29.85,North,0,0.0,0.0,66,0.00,,OVC036,0.00,VWS V12.08,2013-07-21 13:02:00,
2013-07-21 06:07:00,56.1,44.9,29.85,North,0,0.0,0.0,66,0.00,,OVC036,0.00,VWS V12.08,2013-07-21 13:07:00,
2013-07-21 06:12:00,56.3,45.1,29.85,North,0,0.0,0.0,66,0.00,,OVC036,0.00,VWS V12.08,2013-07-21 13:12:00,
2013-07-21 06:17:00,56.3,45.1,29.85,North,0,0.0,0.0,66,0.00,,OVC036,0.00,VWS V12.08,2013-07-21 13:17:00,
2013-07-21 06:22:00,56.3,45.1,29.85,North,0,0.0,0.0,66,0.00,,OVC036,0.00,VWS V12.08,2013-07-21 13:22:00,
2013-07-21 06:27:00,56.3,45.1,29.85,North,0,0.0,0.0,66,0.00,,OVC036,0.00,VWS V12.08,2013-07-21 13:27:00,
2013-07-21 06:32:00,56.5,45.3,29.85,North,0,0.0,0.0,66,0.00,,OVC036,0.00,VWS V12.08,2013-07-21 13:32:00,
2013-07-21 06:37:00,56.3,45.1,29.85,North,0,0.0,0.0,66,0.00,,OVC036,0.00,VWS V12.08,2013-07-21 13:37:00,
2013-07-21 06:42:00,56.5,45.7,29.85,North,0,0.0,0.0,67,0.00,,OVC036,0.00,VWS V12.08,2013-07-21 13:42:00,
2013-07-21 06:47:00,56.7,45.8,29.85,North,0,0.0,0.0,67,0.00,,OVC036,0.00,VWS V12.08,2013-07-21 13:47:00,
2013-07-21 06:52:00,56.8,46.0,29.85,North,0,0.0,0.0,67,0.00,,OVC036,0.00,VWS V12.08,2013-07-21 13:52:00,
2013-07-21 06:57:00,56.8,46.0,29.85,North,0,0.0,0.0,67,0.00,,OVC036,0.00,VWS V12.08,2013-07-21 13:57:00,
2013-07-21 07:02:00,56.8,46.0,29.85,North,0,0.0,0.0,67,0.00,,OVC036,0.00,VWS V12.08,2013-07-21 14:02:00,
2013-07-21 07:07:00,56.8,46.0,29.85,North,0,0.0,0.0,67,0.00,,OVC036,0.00,VWS V12.08,2013-07-21 14:07:00,
2013-07-21 07:12:00,56.8,46.4,29.85,North,0,0.0,0.0,68,0.00,,OVC036,0.00,VWS V12.08,2013-07-21 14:12:00,
2013-07-21 07:17:00,56.8,46.4,29.85,North,0,0.0,0.0,68,0.00,,OVC036,0.00,VWS V12.08,2013-07-21 14:17:00,
2013-07-21 07:22:00,57.0,47.0,29.85,North,0,0.0,0.0,69,0.00,,OVC036,0.00,VWS V12.08,2013-07-21 14:22:00,
2013-07-21 07:27:00,57.2,46.8,29.88,North,0,0.0,0.0,68,0.00,,OVC036,0.00,VWS V12.08,2013-07-21 14:27:00,
2013-07-21 07:32:00,57.4,46.9,29.88,North,0,0.0,0.0,68,0.00,,OVC036,0.00,VWS V12.08,2013-07-21 14:32:00,
2013-07-21 07:37:00,57.4,47.3,29.88,North,0,0.0,0.0,69,0.00,,OVC036,0.00,VWS V12.08,2013-07-21 14:37:00,
2013-07-21 07:42:00,57.6,47.5,29.85,North,0,0.0,0.0,69,0.00,,OVC036,0.00,VWS V12.08,2013-07-21 14:42:00,
2013-07-21 07:47:00,57.6,47.5,29.85,North,0,0.0,0.0,69,0.00,,OVC036,0.00,VWS V12.08,2013-07-21 14:47:00,
2013-07-21 07:52:00,57.6,47.9,29.85,North,0,0.0,0.0,70,0.00,,OVC036,0.00,VWS V12.08,2013-07-21 14:52:00,
2013-07-21 07:57:00,57.4,48.4,29.85,North,0,0.0,0.0,72,0.00,,OVC036,0.00,VWS V12.08,2013-07-21 14:57:00,
2013-07-21 08:02:00,57.4,48.8,29.85,North,0,0.0,0.0,73,0.00,,OVC036,0.00,VWS V12.08,2013-07-21 15:02:00,
2013-07-21 08:07:00,57.4,49.5,29.85,North,0,0.0,0.0,75,0.00,,OVC036,0.00,VWS V12.08,2013-07-21 15:07:00,
2013-07-21 08:12:00,57.4,50.6,29.85,North,0,0.0,0.0,78,0.00,,OVC036,0.00,VWS V12.08,2013-07-21 15:12:00,
2013-07-21 08:17:00,57.4,50.6,29.85,North,0,0.0,0.0,78,0.00,,OVC036,0.00,VWS V12.08,2013-07-21 15:17:00,
2013-07-21 08:22:00,57.4,50.6,29.85,North,0,0.0,0.0,78,0.00,,OVC036,0.00,VWS V12.08,2013-07-21 15:22:00,
2013-07-21 08:27:00,57.4,50.6,29.85,North,0,0.0,0.0,78,0.00,,OVC036,0.00,VWS V12.08,2013-07-21 15:27:00,
2013-07-21 08:32:00,57.0,50.2,29.85,North,0,0.0,0.0,78,0.00,,OVC036,0.00,VWS V12.08,2013-07-21 15:32:00,
2013-07-21 08:37:00,57.2,50.4,29.85,North,0,0.0,0.0,78,0.00,,OVC036,0.00,VWS V12.08,2013-07-21 15:37:00,
2013-07-21 08:42:00,57.0,50.6,29.88,North,0,0.0,0.0,79,0.00,,OVC036,0.00,VWS V12.08,2013-07-21 15:42:00,
2013-07-21 08:47:00,57.2,50.8,29.88,North,0,0.0,0.0,79,0.00,,OVC036,0.00,VWS V12.08,2013-07-21 15:47:00,
2013-07-21 08:52:00,57.0,50.2,29.88,North,0,0.0,0.0,78,0.00,,OVC036,0.00,VWS V12.08,2013-07-21 15:52:00,
2013-07-21 08:57:00,57.2,50.4,29.88,North,0,0.0,0.0,78,0.00,,OVC036,0.00,VWS V12.08,2013-07-21 15:57:00,
2013-07-21 09:02:00,57.0,49.9,29.88,North,0,0.0,0.0,77,0.00,,OVC036,0.00,VWS V12.08,2013-07-21 16:02:00,
2013-07-21 09:07:00,57.0,50.6,29.88,North,0,0.0,0.0,79,0.00,,OVC036,0.00,VWS V12.08,2013-07-21 16:07:00,
2013-07-21 09:12:00,57.2,50.8,29.88,North,0,0.0,0.0,79,0.00,,OVC036,0.00,VWS V12.08,2013-07-21 16:12:00,
2013-07-21 09:17:00,57.2,50.1,29.88,North,0,0.0,0.0,77,0.00,,OVC036,0.00,VWS V12.08,2013-07-21 16:17:00,
2013-07-21 09:22:00,57.2,50.4,29.88,North,0,0.0,0.0,78,0.00,,OVC036,0.00,VWS V12.08,2013-07-21 16:22:00,
2013-07-21 09:28:00,57.4,50.2,29.88,North,0,0.0,0.0,77,0.00,,OVC036,0.00,VWS V12.08,2013-07-21 16:28:00,
2013-07-21 09:33:00,57.7,49.5,29.88,North,0,0.0,0.0,74,0.00,,OVC036,0.00,VWS V12.08,2013-07-21 16:33:00,
2013-07-21 09:38:00,57.7,48.8,29.88,North,0,0.0,0.0,72,0.00,,OVC036,0.00,VWS V12.08,2013-07-21 16:38:00,
2013-07-21 09:43:00,57.9,49.0,29.88,North,0,0.0,0.0,72,0.00,,OVC036,0.00,VWS V12.08,2013-07-21 16:43:00,
2013-07-21 09:48:00,57.9,48.6,29.88,North,0,0.0,0.0,71,0.00,,OVC036,0.00,VWS V12.08,2013-07-21 16:48:00,
2013-07-21 09:53:00,57.7,48.0,29.88,North,0,0.0,0.0,70,0.00,,OVC036,0.00,VWS V12.08,2013-07-21 16:53:00,
2013-07-21 09:58:00,57.9,47.8,29.88,North,0,0.0,0.0,69,0.00,,OVC036,0.00,VWS V12.08,2013-07-21 16:58:00,
2013-07-21 10:03:00,57.9,47.8,29.88,North,0,0.0,0.0,69,0.00,,OVC036,0.00,VWS V12.08,2013-07-21 17:03:00,
2013-07-21 10:08:00,58.1,48.0,29.88,North,0,0.0,0.0,69,0.00,,OVC036,0.00,VWS V12.08,2013-07-21 17:08:00,
2013-07-21 10:13:00,57.9,46.6,29.85,North,0,0.0,0.0,66,0.00,,OVC036,0.00,VWS V12.08,2013-07-21 17:13:00,
2013-07-21 10:18:00,58.5,47.6,29.85,North,0,0.0,0.0,67,0.00,,OVC036,0.00,VWS V12.08,2013-07-21 17:18:00,
2013-07-21 10:23:00,58.5,45.9,29.85,North,0,0.0,0.0,63,0.00,,OVC036,0.00,VWS V12.08,2013-07-21 17:23:00,
2013-07-21 10:28:00,58.8,45.8,29.88,North,0,0.0,0.0,62,0.00,,OVC036,0.00,VWS V12.08,2013-07-21 17:28:00,
2013-07-21 10:33:00,58.6,46.1,29.88,North,0,0.0,0.0,63,0.00,,OVC036,0.00,VWS V12.08,2013-07-21 17:33:00,
2013-07-21 10:38:00,58.5,45.1,29.88,North,0,0.0,0.0,61,0.00,,OVC036,0.00,VWS V12.08,2013-07-21 17:38:00,
2013-07-21 10:43:00,58.5,45.5,29.88,North,0,0.0,0.0,62,0.00,,OVC036,0.00,VWS V12.08,2013-07-21 17:43:00,
2013-07-21 10:48:00,58.5,45.1,29.88,North,0,0.0,0.0,61,0.00,,OVC036,0.00,VWS V12.08,2013-07-21 17:48:00,
2013-07-21 10:53:00,58.8,45.0,29.88,North,0,0.0,0.0,60,0.00,,OVC036,0.00,VWS V12.08,2013-07-21 17:53:00,
2013-07-21 10:58:00,59.2,44.4,29.85,North,0,0.0,0.0,58,0.00,,OVC036,0.00,VWS V12.08,2013-07-21 17:58:00,
2013-07-21 11:03:00,59.2,44.4,29.85,North,0,0.0,0.0,58,0.00,,OVC036,0.00,VWS V12.08,2013-07-21 18:03:00,
2013-07-21 11:08:00,59.0,42.9,29.85,North,0,0.0,0.0,55,0.00,,OVC036,0.00,VWS V12.08,2013-07-21 18:08:00,
2013-07-21 11:13:00,59.4,43.7,29.85,North,0,0.0,0.0,56,0.00,,OVC036,0.00,VWS V12.08,2013-07-21 18:13:00,
2013-07-21 11:18:00,59.7,43.1,29.85,North,0,0.0,0.0,54,0.00,,OVC036,0.00,VWS V12.08,2013-07-21 18:18:00,
2013-07-21 11:23:00,60.4,42.8,29.85,North,0,0.0,0.0,52,0.00,,OVC036,0.00,VWS V12.08,2013-07-21 18:23:00,
2013-07-21 11:28:00,60.4,42.2,29.85,North,0,0.0,0.0,51,0.00,,OVC036,0.00,VWS V12.08,2013-07-21 18:28:00,
2013-07-21 11:33:00,60.3,42.6,29.85,North,0,0.0,0.0,52,0.00,,OVC036,0.00,VWS V12.08,2013-07-21 18:33:00,
2013-07-21 11:38:00,60.6,42.4,29.85,North,0,0.0,0.0,51,0.00,,OVC036,0.00,VWS V12.08,2013-07-21 18:38:00,
2013-07-21 11:43:00,61.0,42.2,29.88,North,0,0.0,0.0,50,0.00,,OVC036,0.00,VWS V12.08,2013-07-21 18:43:00,
2013-07-21 11:48:00,60.8,42.1,29.88,North,0,0.0,0.0,50,0.00,,OVC036,0.00,VWS V12.08,2013-07-21 18:48:00,
2013-07-21 11:53:00,61.2,41.9,29.88,North,0,0.0,0.0,49,0.00,,OVC036,0.00,VWS V12.08,2013-07-21 18:53:00,
2013-07-21 11:58:00,61.3,42.0,29.85,North,0,0.0,0.0,49,0.00,,OVC036,0.00,VWS V12.08,2013-07-21 18:58:00,
2013-07-21 12:03:00,61.2,41.3,29.85,North,0,0.0,0.0,48,0.00,,OVC036,0.00,VWS V12.08,2013-07-21 19:03:00,
2013-07-21 12:08:00,61.7,41.3,29.85,North,0,0.0,0.0,47,0.00,,OVC036,0.00,VWS V12.08,2013-07-21 19:08:00,
2013-07-21 12:13:00,61.9,41.5,29.85,North,0,0.0,0.0,47,0.00,,OVC036,0.00,VWS V12.08,2013-07-21 19:13:00,
2013-07-21 12:18:00,62.2,41.8,29.85,North,0,0.0,0.0,47,0.00,,OVC036,0.00,VWS V12.08,2013-07-21 19:18:00,
2013-07-21 12:23:00,62.6,41.5,29.85,North,0,0.0,0.0,46,0.00,,OVC036,0.00,VWS V12.08,2013-07-21 19:23:00,
2013-07-21 12:28:00,62.6,41.5,29.85,North,0,0.0,0.0,46,0.00,,OVC036,0.00,VWS V12.08,2013-07-21 19:28:00,
2013-07-21 12:33:00,62.4,41.9,29.85,North,0,0.0,0.0,47,0.00,,OVC036,0.00,VWS V12.08,2013-07-21 19:33:00,
2013-07-21 12:38:00,63.0,41.3,29.85,North,0,0.0,0.0,45,0.00,,OVC036,0.00,VWS V12.08,2013-07-21 19:38:00,
2013-07-21 12:43:00,63.3,41.6,29.85,North,0,0.0,0.0,45,0.00,,OVC036,0.00,VWS V12.08,2013-07-21 19:43:00,
2013-07-21 12:48:00,63.0,40.7,29.85,North,0,0.0,0.0,44,0.00,,OVC036,0.00,VWS V12.08,2013-07-21 19:48:00,
2013-07-21 12:53:00,63.5,41.8,29.85,North,0,0.0,0.0,45,0.00,,OVC036,0.00,VWS V12.08,2013-07-21 19:53:00,
2013-07-21 12:58:00,63.5,41.8,29.85,North,0,0.0,0.0,45,0.00,,OVC036,0.00,VWS V12.08,2013-07-21 19:58:00,
2013-07-21 13:03:00,64.0,41.7,29.85,North,0,0.0,0.0,44,0.00,,OVC036,0.00,VWS V12.08,2013-07-21 20:03:00,
2013-07-21 13:08:00,64.2,41.9,29.85,North,0,0.0,0.0,44,0.00,,OVC036,0.00,VWS V12.08,2013-07-21 20:08:00,
2013-07-21 13:13:00,64.8,41.2,29.85,North,0,0.0,0.0,42,0.00,,OVC036,0.00,VWS V12.08,2013-07-21 20:13:00,
2013-07-21 13:18:00,65.3,41.6,29.85,North,0,0.0,0.0,42,0.00,,OVC036,0.00,VWS V12.08,2013-07-21 20:18:00,
2013-07-21 13:23:00,65.1,42.1,29.85,North,0,0.0,0.0,43,0.00,,OVC036,0.00,VWS V12.08,2013-07-21 20:23:00,
2013-07-21 13:28:00,64.9,40.7,29.85,North,0,0.0,0.0,41,0.00,,OVC036,0.00,VWS V12.08,2013-07-21 20:28:00,
2013-07-21 13:33:00,65.5,40.5,29.85,North,0,0.0,0.0,40,0.00,,OVC036,0.00,VWS V12.08,2013-07-21 20:33:00,
2013-07-21 13:38:00,65.7,41.3,29.85,North,0,0.0,0.0,41,0.00,,OVC036,0.00,VWS V12.08,2013-07-21 20:38:00,
2013-07-21 13:43:00,66.4,40.7,29.85,North,0,0.0,0.0,39,0.00,,OVC036,0.00,VWS V12.08,2013-07-21 20:43:00,
2013-07-21 13:48:00,66.4,40.0,29.85,North,0,0.0,0.0,38,0.00,,OVC036,0.00,VWS V12.08,2013-07-21 20:48:00,
2013-07-21 13:53:00,66.7,39.7,29.85,North,0,0.0,0.0,37,0.00,,OVC036,0.00,VWS V12.08,2013-07-21 20:53:00,
2013-07-21 13:58:00,66.9,39.1,29.85,North,0,0.0,0.0,36,0.00,,OVC036,0.00,VWS V12.08,2013-07-21 20:58:00,
2013-07-21 14:03:00,67.1,40.0,29.85,North,0,0.0,0.0,37,0.00,,OVC036,0.00,VWS V12.08,2013-07-21 21:03:00,
2013-07-21 14:08:00,66.7,39.7,29.85,North,0,0.0,0.0,37,0.00,,OVC036,0.00,VWS V12.08,2013-07-21 21:08:00,
2013-07-21 14:13:00,66.7,39.7,29.85,North,0,0.0,0.0,37,0.00,,OVC036,0.00,VWS V12.08,2013-07-21 21:13:00,
2013-07-21 14:18:00,67.5,40.3,29.85,North,0,0.0,0.0,37,0.00,,OVC036,0.00,VWS V12.08,2013-07-21 21:18:00,
2013-07-21 14:23:00,66.9,40.5,29.85,North,0,0.0,0.0,38,0.00,,OVC036,0.00,VWS V12.08,2013-07-21 21:23:00,
2013-07-21 14:28:00,67.8,39.9,29.85,North,0,0.0,0.0,36,0.00,,OVC036,0.00,VWS V12.08,2013-07-21 21:28:00,
2013-07-21 14:33:00,68.2,39.5,29.85,North,0,0.0,0.0,35,0.00,,OVC036,0.00,VWS V12.08,2013-07-21 21:33:00,
2013-07-21 14:38:00,67.3,39.4,29.85,North,0,0.0,0.0,36,0.00,,OVC036,0.00,VWS V12.08,2013-07-21 21:38:00,
2013-07-21 14:43:00,67.8,39.9,29.85,North,0,0.0,0.0,36,0.00,,OVC036,0.00,VWS V12.08,2013-07-21 21:43:00,
2013-07-21 14:48:00,68.7,40.0,29.85,North,0,0.0,0.0,35,0.00,,OVC036,0.00,VWS V12.08,2013-07-21 21:48:00,
2013-07-21 14:53:00,70.0,39.6,29.85,North,0,0.0,0.0,33,0.00,,OVC036,0.00,VWS V12.08,2013-07-21 21:53:00,
2013-07-21 14:58:00,69.1,39.6,29.83,North,0,0.0,0.0,34,0.00,,OVC036,0.00,VWS V12.08,2013-07-21 21:58:00,
2013-07-21 15:03:00,69.1,39.6,29.83,North,0,0.0,0.0,34,0.00,,OVC036,0.00,VWS V12.08,2013-07-21 22:03:00,
2013-07-21 15:08:00,69.1,39.6,29.83,North,0,0.0,0.0,34,0.00,,OVC036,0.00,VWS V12.08,2013-07-21 22:08:00,
2013-07-21 15:13:00,69.4,39.9,29.83,North,0,0.0,0.0,34,0.00,,OVC036,0.00,VWS V12.08,2013-07-21 22:13:00,
2013-07-21 15:18:00,69.6,40.0,29.83,North,0,0.0,0.0,34,0.00,,OVC036,0.00,VWS V12.08,2013-07-21 22:18:00,
2013-07-21 15:23:00,69.6,40.0,29.83,North,0,0.0,0.0,34,0.00,,OVC036,0.00,VWS V12.08,2013-07-21 22:23:00,
2013-07-21 15:28:00,69.3,39.7,29.83,North,0,0.0,0.0,34,0.00,,OVC036,0.00,VWS V12.08,2013-07-21 22:28:00,
2013-07-21 15:33:00,70.5,40.1,29.83,North,0,0.0,0.0,33,0.00,,OVC036,0.00,VWS V12.08,2013-07-21 22:33:00,
2013-07-21 15:38:00,69.8,39.4,29.83,North,0,0.0,0.0,33,0.00,,OVC036,0.00,VWS V12.08,2013-07-21 22:38:00,
2013-07-21 15:43:00,71.2,39.9,29.83,North,0,0.0,0.0,32,0.00,,OVC036,0.00,VWS V12.08,2013-07-21 22:43:00,
2013-07-21 15:48:00,70.0,39.6,29.83,North,0,0.0,0.0,33,0.00,,OVC036,0.00,VWS V12.08,2013-07-21 22:48:00,
2013-07-21 15:53:00,70.5,40.1,29.83,North,0,0.0,0.0,33,0.00,,OVC036,0.00,VWS V12.08,2013-07-21 22:53:00,
2013-07-21 15:58:00,70.5,40.1,29.83,North,0,0.0,0.0,33,0.00,,OVC036,0.00,VWS V12.08,2013-07-21 22:58:00,
2013-07-21 16:03:00,70.9,39.6,29.83,North,0,0.0,0.0,32,0.00,,OVC036,0.00,VWS V12.08,2013-07-21 23:03:00,
2013-07-21 16:08:00,71.1,39.7,29.83,North,0,0.0,0.0,32,0.00,,OVC036,0.00,VWS V12.08,2013-07-21 23:08:00,
2013-07-21 16:13:00,71.2,39.9,29.83,North,0,0.0,0.0,32,0.00,,OVC036,0.00,VWS V12.08,2013-07-21 23:13:00,
2013-07-21 16:18:00,71.6,39.4,29.83,North,0,0.0,0.0,31,0.00,,OVC036,0.00,VWS V12.08,2013-07-21 23:18:00,
2013-07-21 16:23:00,71.8,39.5,29.83,North,0,0.0,0.0,31,0.00,,OVC036,0.00,VWS V12.08,2013-07-21 23:23:00,
2013-07-21 16:28:00,71.6,39.4,29.83,North,0,0.0,0.0,31,0.00,,OVC036,0.00,VWS V12.08,2013-07-21 23:28:00,
2013-07-21 16:33:00,72.0,39.7,29.83,North,0,0.0,0.0,31,0.00,,OVC036,0.00,VWS V12.08,2013-07-21 23:33:00,
2013-07-21 16:38:00,72.5,40.2,29.83,North,0,0.0,0.0,31,0.00,,OVC036,0.00,VWS V12.08,2013-07-21 23:38:00,
2013-07-21 16:43:00,72.5,40.2,29.83,North,0,0.0,0.0,31,0.00,,OVC036,0.00,VWS V12.08,2013-07-21 23:43:00,
2013-07-21 16:48:00,72.7,40.3,29.83,North,0,0.0,0.0,31,0.00,,OVC036,0.00,VWS V12.08,2013-07-21 23:48:00,
2013-07-21 16:53:00,72.7,40.3,29.83,North,0,0.0,0.0,31,0.00,,OVC036,0.00,VWS V12.08,2013-07-21 23:53:00,
2013-07-21 16:58:00,72.7,39.5,29.80,North,0,0.0,0.0,30,0.00,,OVC036,0.00,VWS V12.08,2013-07-21 23:58:00,
2013-07-21 17:03:00,72.9,39.7,29.80,North,0,0.0,0.0,30,0.00,,OVC036,0.00,VWS V12.08,2013-07-22 00:03:00,
2013-07-21 17:08:00,73.2,40.0,29.80,North,0,0.0,0.0,30,0.00,,OVC036,0.00,VWS V12.08,2013-07-22 00:08:00,
2013-07-21 17:13:00,73.4,39.2,29.80,North,0,0.0,0.0,29,0.00,,OVC036,0.00,VWS V12.08,2013-07-22 00:13:00,
2013-07-21 17:18:00,73.6,40.3,29.80,North,0,0.0,0.0,30,0.00,,OVC036,0.00,VWS V12.08,2013-07-22 00:18:00,
2013-07-21 17:23:00,74.1,39.9,29.80,North,0,0.0,0.0,29,0.00,,OVC036,0.00,VWS V12.08,2013-07-22 00:23:00,
2013-07-21 17:28:00,74.3,39.1,29.80,North,0,0.0,0.0,28,0.00,,OVC036,0.00,VWS V12.08,2013-07-22 00:28:00,
2013-07-21 17:33:00,74.1,39.0,29.80,North,0,0.0,0.0,28,0.00,,OVC036,0.00,VWS V12.08,2013-07-22 00:33:00,
2013-07-21 17:38:00,73.6,40.3,29.80,North,0,0.0,0.0,30,0.00,,OVC036,0.00,VWS V12.08,2013-07-22 00:38:00,
2013-07-21 17:43:00,73.4,40.1,29.80,North,0,0.0,0.0,30,0.00,,OVC036,0.00,VWS V12.08,2013-07-22 00:43:00,
2013-07-21 17:48:00,73.8,38.7,29.80,North,0,0.0,0.0,28,0.00,,OVC036,0.00,VWS V12.08,2013-07-22 00:48:00,
2013-07-21 17:53:00,73.6,39.4,29.80,North,0,0.0,0.0,29,0.00,,OVC036,0.00,VWS V12.08,2013-07-22 00:53:00,
2013-07-21 17:58:00,73.2,40.0,29.80,North,0,0.0,0.0,30,0.00,,OVC036,0.00,VWS V12.08,2013-07-22 00:58:00,
2013-07-21 18:03:00,73.4,40.1,29.80,North,0,0.0,0.0,30,0.00,,OVC036,0.00,VWS V12.08,2013-07-22 01:03:00,
2013-07-21 18:08:00,73.4,40.1,29.80,North,0,0.0,0.0,30,0.00,,OVC036,0.00,VWS V12.08,2013-07-22 01:08:00,
2013-07-21 18:13:00,73.4,40.1,29.80,North,0,0.0,0.0,30,0.00,,OVC036,0.00,VWS V12.08,2013-07-22 01:13:00,
2013-07-21 18:18:00,73.2,40.0,29.80,North,0,0.0,0.0,30,0.00,,OVC036,0.00,VWS V12.08,2013-07-22 01:18:00,
2013-07-21 18:23:00,73.2,40.8,29.80,North,0,0.0,0.0,31,0.00,,OVC036,0.00,VWS V12.08,2013-07-22 01:23:00,
2013-07-21 18:28:00,73.4,41.0,29.80,North,0,0.0,0.0,31,0.00,,OVC036,0.00,VWS V12.08,2013-07-22 01:28:00,
2013-07-21 18:33:00,73.4,41.0,29.80,North,0,0.0,0.0,31,0.00,,OVC036,0.00,VWS V12.08,2013-07-22 01:33:00,
2013-07-21 18:38:00,73.4,41.0,29.80,North,0,0.0,0.0,31,0.00,,OVC036,0.00,VWS V12.08,2013-07-22 01:38:00,
2013-07-21 18:43:00,73.4,41.0,29.80,North,0,0.0,0.0,31,0.00,,OVC036,0.00,VWS V12.08,2013-07-22 01:43:00,
2013-07-21 18:48:00,73.2,40.8,29.80,North,0,0.0,0.0,31,0.00,,OVC036,0.00,VWS V12.08,2013-07-22 01:48:00,
2013-07-21 18:53:00,73.2,41.6,29.80,North,0,0.0,0.0,32,0.00,,OVC036,0.00,VWS V12.08,2013-07-22 01:53:00,
2013-07-21 18:58:00,73.0,41.5,29.80,North,0,0.0,0.0,32,0.00,,OVC036,0.00,VWS V12.08,2013-07-22 01:58:00,
2013-07-21 19:03:00,72.7,41.2,29.80,North,0,0.0,0.0,32,0.00,,OVC036,0.00,VWS V12.08,2013-07-22 02:03:00,
2013-07-21 19:08:00,72.7,41.2,29.80,North,0,0.0,0.0,32,0.00,,OVC036,0.00,VWS V12.08,2013-07-22 02:08:00,
2013-07-21 19:13:00,72.5,41.0,29.80,North,0,0.0,0.0,32,0.00,,OVC036,0.00,VWS V12.08,2013-07-22 02:13:00,
2013-07-21 19:18:00,72.5,41.0,29.80,North,0,0.0,0.0,32,0.00,,OVC036,0.00,VWS V12.08,2013-07-22 02:18:00,
2013-07-21 19:23:00,72.3,40.8,29.80,North,0,0.0,0.0,32,0.00,,OVC036,0.00,VWS V12.08,2013-07-22 02:23:00,
2013-07-21 19:28:00,72.3,40.8,29.80,North,0,0.0,0.0,32,0.00,,OVC036,0.00,VWS V12.08,2013-07-22 02:28:00,
2013-07-21 19:33:00,72.1,40.7,29.80,North,0,0.0,0.0,32,0.00,,OVC036,0.00,VWS V12.08,2013-07-22 02:33:00,
2013-07-21 19:38:00,72.1,40.7,29.80,North,0,0.0,0.0,32,0.00,,OVC036,0.00,VWS V12.08,2013-07-22 02:38:00,
2013-07-21 19:43:00,72.0,40.5,29.80,North,0,0.0,0.0,32,0.00,,OVC036,0.00,VWS V12.08,2013-07-22 02:43:00,
2013-07-21 19:48:00,71.8,40.4,29.80,North,0,0.0,0.0,32,0.00,,OVC036,0.00,VWS V12.08,2013-07-22 02:48:00,
2013-07-21 19:53:00,71.6,40.2,29.80,North,0,0.0,0.0,32,0.00,,OVC036,0.00,VWS V12.08,2013-07-22 02:53:00,
2013-07-21 19:58:00,71.4,40.8,29.80,North,0,0.0,0.0,33,0.00,,OVC036,0.00,VWS V12.08,2013-07-22 02:58:00,
2013-07-21 20:03:00,71.4,40.8,29.80,North,0,0.0,0.0,33,0.00,,OVC036,0.00,VWS V12.08,2013-07-22 03:03:00,
2013-07-21 20:08:00,71.2,40.7,29.80,North,0,0.0,0.0,33,0.00,,OVC036,0.00,VWS V12.08,2013-07-22 03:08:00,
2013-07-21 20:13:00,71.1,40.5,29.80,North,0,0.0,0.0,33,0.00,,OVC036,0.00,VWS V12.08,2013-07-22 03:13:00,
2013-07-21 20:18:00,70.9,41.1,29.80,North,0,0.0,0.0,34,0.00,,OVC036,0.00,VWS V12.08,2013-07-22 03:18:00,
2013-07-21 20:23:00,70.7,41.7,29.80,North,0,0.0,0.0,35,0.00,,OVC036,0.00,VWS V12.08,2013-07-22 03:23:00,
2013-07-21 20:28:00,70.3,41.4,29.80,North,0,0.0,0.0,35,0.00,,OVC036,0.00,VWS V12.08,2013-07-22 03:28:00,
2013-07-21 20:33:00,70.0,41.8,29.80,North,0,0.0,0.0,36,0.00,,OVC036,0.00,VWS V12.08,2013-07-22 03:33:00,
2013-07-21 20:38:00,69.6,42.2,29.80,North,0,0.0,0.0,37,0.00,,OVC036,0.00,VWS V12.08,2013-07-22 03:38:00,
2013-07-21 20:43:00,69.1,42.4,29.80,North,0,0.0,0.0,38,0.00,,OVC036,0.00,VWS V12.08,2013-07-22 03:43:00,
2013-07-21 20:48:00,68.5,42.6,29.80,North,0,0.0,0.0,39,0.00,,OVC036,0.00,VWS V12.08,2013-07-22 03:48:00,
2013-07-21 20:53:00,68.5,43.3,29.80,North,0,0.0,0.0,40,0.00,,OVC036,0.00,VWS V12.08,2013-07-22 03:53:00,
2013-07-21 20:58:00,68.2,41.6,29.80,North,0,0.0,0.0,38,0.00,,OVC036,0.00,VWS V12.08,2013-07-22 03:58:00,
2013-07-21 21:01:00,68.0,42.1,29.80,North,0,0.0,0.0,39,0.00,,OVC036,0.00,VWS V12.08,2013-07-22 04:01:00,
2013-07-21 21:02:00,68.0,42.1,29.80,North,0,0.0,0.0,39,0.00,,OVC036,0.00,VWS V12.08,2013-07-22 04:02:00,
2013-07-21 21:07:00,67.8,42.6,29.80,North,0,0.0,0.0,40,0.00,,OVC036,0.00,VWS V12.08,2013-07-22 04:07:00,
2013-07-21 21:12:00,67.3,42.2,29.80,North,0,0.0,0.0,40,0.00,,OVC036,0.00,VWS V12.08,2013-07-22 04:12:00,
2013-07-21 21:17:00,66.7,41.7,29.80,North,0,0.0,0.0,40,0.00,,OVC036,0.00,VWS V12.08,2013-07-22 04:17:00,
2013-07-21 21:22:00,66.4,42.6,29.80,North,0,0.0,0.0,42,0.00,,OVC036,0.00,VWS V12.08,2013-07-22 04:22:00,
2013-07-21 21:27:00,66.0,42.9,29.80,North,0,0.0,0.0,43,0.00,,OVC036,0.00,VWS V12.08,2013-07-22 04:27:00,
2013-07-21 21:32:00,65.8,42.7,29.80,North,0,0.0,0.0,43,0.00,,OVC036,0.00,VWS V12.08,2013-07-22 04:32:00,
2013-07-21 21:37:00,65.7,42.6,29.80,North,0,0.0,0.0,43,0.00,,OVC036,0.00,VWS V12.08,2013-07-22 04:37:00,
2013-07-21 21:42:00,65.3,42.8,29.83,North,0,0.0,0.0,44,0.00,,OVC036,0.00,VWS V12.08,2013-07-22 04:42:00,
2013-07-21 21:47:00,64.9,42.5,29.83,North,0,0.0,0.0,44,0.00,,OVC036,0.00,VWS V12.08,2013-07-22 04:47:00,
2013-07-21 21:52:00,64.8,42.4,29.83,North,0,0.0,0.0,44,0.00,,OVC036,0.00,VWS V12.08,2013-07-22 04:52:00,
2013-07-21 21:57:00,64.8,42.4,29.83,North,0,0.0,0.0,44,0.00,,OVC036,0.00,VWS V12.08,2013-07-22 04:57:00,
2013-07-21 22:02:00,64.6,42.2,29.83,North,0,0.0,0.0,44,0.00,,OVC036,0.00,VWS V12.08,2013-07-22 05:02:00,
2013-07-21 22:07:00,64.4,42.6,29.83,North,0,0.0,0.0,45,0.00,,OVC036,0.00,VWS V12.08,2013-07-22 05:07:00,
2013-07-21 22:12:00,64.0,42.9,29.83,North,0,0.0,0.0,46,0.00,,OVC036,0.00,VWS V12.08,2013-07-22 05:12:00,
2013-07-21 22:17:00,63.9,42.7,29.83,North,0,0.0,0.0,46,0.00,,OVC036,0.00,VWS V12.08,2013-07-22 05:17:00,
2013-07-21 22:22:00,63.9,42.7,29.83,North,0,0.0,0.0,46,0.00,,OVC036,0.00,VWS V12.08,2013-07-22 05:22:00,
2013-07-21 22:27:00,63.7,42.5,29.83,North,0,0.0,0.0,46,0.00,,OVC036,0.00,VWS V12.08,2013-07-22 05:27:00,
2013-07-21 22:32:00,63.5,42.4,29.83,North,0,0.0,0.0,46,0.00,,OVC036,0.00,VWS V12.08,2013-07-22 05:32:00,
2013-07-21 22:37:00,63.3,42.2,29.83,North,0,0.0,0.0,46,0.00,,OVC036,0.00,VWS V12.08,2013-07-22 05:37:00,
2013-07-21 22:42:00,63.0,41.9,29.83,North,0,0.0,0.0,46,0.00,,OVC036,0.00,VWS V12.08,2013-07-22 05:42:00,
2013-07-21 22:47:00,62.8,42.3,29.83,North,0,0.0,0.0,47,0.00,,OVC036,0.00,VWS V12.08,2013-07-22 05:47:00,
2013-07-21 22:52:00,62.6,42.1,29.83,North,0,0.0,0.0,47,0.00,,OVC036,0.00,VWS V12.08,2013-07-22 05:52:00,
2013-07-21 22:57:00,62.4,41.9,29.83,North,0,0.0,0.0,47,0.00,,OVC036,0.00,VWS V12.08,2013-07-22 05:57:00,
2013-07-21 23:02:00,62.2,41.8,29.83,North,0,0.0,0.0,47,0.00,,OVC036,0.00,VWS V12.08,2013-07-22 06:02:00,
2013-07-21 23:07:00,62.1,41.6,29.83,North,0,0.0,0.0,47,0.00,,OVC036,0.00,VWS V12.08,2013-07-22 06:07:00,
2013-07-21 23:12:00,61.7,41.3,29.83,North,0,0.0,0.0,47,0.00,,OVC036,0.00,VWS V12.08,2013-07-22 06:12:00,
2013-07-21 23:17:00,61.5,42.2,29.83,North,0,0.0,0.0,49,0.00,,OVC036,0.00,VWS V12.08,2013-07-22 06:17:00,
2013-07-21 23:22:00,61.2,41.9,29.83,North,0,0.0,0.0,49,0.00,,OVC036,0.00,VWS V12.08,2013-07-22 06:22:00,
2013-07-21 23:27:00,61.0,42.2,29.83,North,0,0.0,0.0,50,0.00,,OVC036,0.00,VWS V12.08,2013-07-22 06:27:00,
2013-07-21 23:32:00,60.8,42.1,29.83,North,0,0.0,0.0,50,0.00,,OVC036,0.00,VWS V12.08,2013-07-22 06:32:00,
2013-07-21 23:37:00,60.8,42.1,29.83,North,0,0.0,0.0,50,0.00,,OVC036,0.00,VWS V12.08,2013-07-22 06:37:00,
2013-07-21 23:42:00,60.4,42.2,29.83,North,0,0.0,0.0,51,0.00,,OVC036,0.00,VWS V12.08,2013-07-22 06:42:00,
2013-07-21 23:47:00,60.1,42.4,29.83,North,0,0.0,0.0,52,0.00,,OVC036,0.00,VWS V12.08,2013-07-22 06:47:00,
2013-07-21 23:52:00,60.1,42.9,29.83,North,0,0.0,0.0,53,0.00,,OVC036,0.00,VWS V12.08,2013-07-22 06:52:00,
2013-07-21 23:57:00,59.9,42.7,29.83,North,0,0.0,0.0,53,0.00,,OVC036,0.00,VWS V12.08,2013-07-22 06:57:00,